Surface observations / UK / EGOM

Quebec | Canada | USA | France | UK | Europe | Elsewhere

Display: Info & Location for EGOM | Help decoding METAR


Raw surface observations for station EGOM
EGOM 312350Z AUTO 15004KT 9000 BR FEW021/// BKN028/// BKN060/// 12/11 Q1007=
EGOM 312250Z AUTO 17004KT 9000 BR FEW018/// BKN023/// BKN028/// 13/13 Q1007=
EGOM 312150Z AUTO 22006KT 9999 FEW015/// SCT022/// 13/13 Q1008 RERA=
EGOM 312050Z AUTO 20006KT 9999 BKN018/// SCT070/// 14/12 Q1008=
EGOM 311950Z AUTO 22005KT 9999 BKN024/// BKN034/// 14/12 Q1008=
EGOM 311850Z AUTO 24008KT 9999 BKN024/// SCT030/// BKN039/// 15/11 Q1008=
EGOM 311750Z AUTO 25010KT 9999 SCT024/// BKN031/// 16/11 Q1008=
EGOM 311650Z AUTO 25013KT 9999 FEW021/// SCT046/// BKN060/// 17/12 Q1008=
EGOM 311550Z AUTO 25013KT 9999 SCT023/// BKN046/// 17/12 Q1009=
EGOM 311450Z 25015KT 9999 FEW023 BKN038 16/11 Q1009 BLU=
EGOM 011450Z AUTO 13003KT 9999 -DZ SCT009/// SCT015/// BKN043/// 15/13 Q1004=
EGOM 011350Z AUTO 03002KT 9999 RA FEW006/// BKN050/// 15/13 Q1004=
EGOM 011250Z AUTO 09003KT 7000 RA FEW021/// BKN050/// 14/13 Q1004=
EGOM 011150Z 14002KT 9999 -RA FEW020 BKN060 15/11 Q1004 BLU=
EGOM 011050Z 19005KT 9999 -RA FEW010 SCT022 BKN040 14/12 Q1005 WHT=
EGOM 010950Z 20007KT 9999 -RA SCT008 OVC050 14/13 Q1005 GRN=
EGOM 010850Z 21006KT 9999 -RA SCT020 OVC060 14/13 Q1006 WHT=
EGOM 010750Z 22007KT 9999 FEW035 OVC120 14/12 Q1006 BLU=
EGOM 010650Z AUTO 22006KT 9999 FEW028/// BKN150/// 13/12 Q1006=
EGOM 010550Z AUTO 20006KT 9999 BKN026/// 13/12 Q1006=
EGOM 010450Z AUTO 18004KT 6000 BR FEW014/// SCT190/// 12/11 Q1006=
EGOM 010350Z AUTO 15004KT 8000 BR FEW015/// BKN026/// 12/11 Q1006=
EGOM 010250Z AUTO 21005KT 9000 BR FEW019/// BKN047/// 12/12 Q1006=
EGOM 010150Z AUTO 18004KT 9999 BKN017/// 12/11 Q1006=
EGOM 010050Z AUTO 17004KT 9999 BKN017/// 13/12 Q1007=